createdAt,value
2022-08-17T00:00:44.030Z,13.81
2022-08-17T00:01:53.253Z,13.85
2022-08-17T00:03:06.375Z,13.67
2022-08-17T00:04:11.674Z,13.02
2022-08-17T00:05:15.708Z,12.79
2022-08-17T00:06:29.391Z,12.88
2022-08-17T00:07:31.105Z,12.32
2022-08-17T00:08:36.906Z,13.50
2022-08-17T00:09:38.659Z,12.40
2022-08-17T00:10:41.920Z,12.85
2022-08-17T00:12:35.510Z,13.13
2022-08-17T00:13:12.510Z,13.55
2022-08-17T00:14:17.745Z,13.56
2022-08-17T00:15:21.598Z,13.53
2022-08-17T00:16:55.893Z,13.62
2022-08-17T00:17:53.206Z,13.43
2022-08-17T00:19:07.527Z,14.00
2022-08-17T00:20:12.269Z,13.49
2022-08-17T00:21:17.080Z,13.47
2022-08-17T00:22:35.122Z,13.83
2022-08-17T00:23:39.369Z,12.75
2022-08-17T00:24:48.660Z,13.44
2022-08-17T00:25:50.694Z,14.74
2022-08-17T00:26:52.405Z,14.51
2022-08-17T00:27:54.133Z,15.26
2022-08-17T00:28:56.938Z,14.79
2022-08-17T00:29:58.627Z,14.18
2022-08-17T00:31:01.116Z,14.14
2022-08-17T00:33:11.959Z,14.71
2022-08-17T00:33:30.686Z,13.73
2022-08-17T00:34:32.720Z,13.59
2022-08-17T00:35:35.433Z,13.27
2022-08-17T00:36:37.797Z,13.52
2022-08-17T00:37:40.309Z,13.77
2022-08-17T00:38:42.350Z,13.87
2022-08-17T00:39:44.316Z,12.60
2022-08-17T00:40:50.028Z,12.56
2022-08-17T00:41:53.580Z,11.83
2022-08-17T00:42:55.499Z,12.30
2022-08-17T00:44:03.232Z,11.87
2022-08-17T00:45:11.164Z,11.54
2022-08-17T00:46:28.174Z,11.59
2022-08-17T00:47:30.173Z,12.25
2022-08-17T00:48:32.468Z,13.09
2022-08-17T00:49:34.214Z,14.32
2022-08-17T00:50:37.335Z,16.75
2022-08-17T00:51:54.993Z,17.56
2022-08-17T00:52:58.788Z,17.82
2022-08-17T00:54:19.066Z,16.80
2022-08-17T00:55:22.296Z,15.30
2022-08-17T00:56:31.605Z,14.87
2022-08-17T00:57:40.217Z,14.17
2022-08-17T00:58:42.109Z,13.59
2022-08-17T01:00:01.986Z,13.12
2022-08-17T01:01:08.613Z,12.34
2022-08-17T01:02:15.237Z,12.20
2022-08-17T01:03:27.657Z,11.96
2022-08-17T01:04:32.416Z,11.52
2022-08-17T01:05:38.736Z,11.47
2022-08-17T01:06:49.445Z,12.09
2022-08-17T01:07:51.738Z,12.25
2022-08-17T01:08:57.586Z,13.15
2022-08-17T01:10:06.071Z,11.68
2022-08-17T01:11:08.362Z,11.41
2022-08-17T01:12:12.144Z,11.42
2022-08-17T01:13:14.277Z,11.38
2022-08-17T01:14:16.056Z,11.78
2022-08-17T01:15:17.884Z,11.50
2022-08-17T01:16:26.725Z,10.99
2022-08-17T01:17:28.546Z,11.38
2022-08-17T01:18:32.277Z,11.02
2022-08-17T01:19:39.254Z,11.06
2022-08-17T01:20:48.970Z,10.61
2022-08-17T01:22:02.726Z,11.23
2022-08-17T01:23:04.814Z,10.67
2022-08-17T01:24:07.393Z,10.81
2022-08-17T01:25:12.698Z,10.92
2022-08-17T01:26:14.703Z,10.51
2022-08-17T01:27:18.454Z,9.95
2022-08-17T01:28:52.568Z,9.74
2022-08-17T01:29:51.119Z,9.38
2022-08-17T01:30:58.066Z,9.69
2022-08-17T01:32:06.035Z,9.39
2022-08-17T01:33:11.377Z,9.94
2022-08-17T01:34:16.554Z,9.98
2022-08-17T01:35:18.243Z,9.97
2022-08-17T01:36:20.236Z,9.61
2022-08-17T01:37:31.177Z,9.82
2022-08-17T01:38:37.208Z,10.10
2022-08-17T01:39:45.728Z,9.17
2022-08-17T01:40:57.564Z,9.81
2022-08-17T01:42:09.403Z,9.61
2022-08-17T01:43:25.034Z,9.74
2022-08-17T01:44:27.812Z,9.48
2022-08-17T01:45:33.805Z,10.53
2022-08-17T01:46:38.559Z,10.14
2022-08-17T01:47:41.749Z,10.62
2022-08-17T01:48:47.261Z,10.91
2022-08-17T01:49:49.265Z,11.27
2022-08-17T01:50:51.973Z,9.92
2022-08-17T01:51:54.742Z,10.24
2022-08-17T01:53:05.977Z,10.25
2022-08-17T01:54:12.828Z,10.84
2022-08-17T01:55:25.880Z,10.52
2022-08-17T01:56:32.575Z,11.28
2022-08-17T01:57:34.371Z,10.81
2022-08-17T01:58:37.858Z,11.01
2022-08-17T01:59:39.722Z,10.13
2022-08-17T02:00:59.465Z,9.73
2022-08-17T02:02:04.845Z,10.40
2022-08-17T02:03:08.246Z,10.55
2022-08-17T02:04:11.325Z,10.53
2022-08-17T02:05:13.187Z,10.09
2022-08-17T02:06:27.284Z,10.17
2022-08-17T02:07:29.980Z,10.32
2022-08-17T02:08:39.165Z,11.02
2022-08-17T02:09:57.362Z,10.60
2022-08-17T02:11:04.302Z,10.66
2022-08-17T02:12:38.865Z,10.28
2022-08-17T02:13:35.834Z,10.50
2022-08-17T02:14:37.550Z,10.52
2022-08-17T02:15:41.483Z,10.72
2022-08-17T02:16:43.385Z,9.69
2022-08-17T02:17:45.304Z,9.82
2022-08-17T02:18:46.997Z,10.90
2022-08-17T02:19:48.766Z,9.97
2022-08-17T02:20:50.430Z,10.24
2022-08-17T02:21:54.069Z,10.78
2022-08-17T02:22:55.842Z,10.78
2022-08-17T02:23:57.622Z,11.90
2022-08-17T02:25:02.573Z,13.29
2022-08-17T02:26:05.753Z,13.38
2022-08-17T02:27:07.611Z,12.45
2022-08-17T02:28:10.280Z,12.17
2022-08-17T02:29:12.079Z,12.52
2022-08-17T02:31:01.816Z,12.76
2022-08-17T02:31:37.918Z,12.57
2022-08-17T02:32:40.757Z,13.10
2022-08-17T02:33:43.791Z,12.39
2022-08-17T02:34:46.044Z,11.86
2022-08-17T02:35:48.082Z,11.41
2022-08-17T02:36:49.734Z,10.98
2022-08-17T02:37:55.462Z,11.04
2022-08-17T02:38:58.559Z,10.71
2022-08-17T02:40:00.502Z,11.16
2022-08-17T02:41:03.146Z,11.29
2022-08-17T02:42:05.421Z,11.17
2022-08-17T02:43:08.811Z,11.15
2022-08-17T02:44:11.351Z,11.91
2022-08-17T02:45:19.582Z,11.92
2022-08-17T02:46:21.258Z,11.42
2022-08-17T02:47:23.512Z,11.24
2022-08-17T02:48:30.824Z,10.29
2022-08-17T02:49:33.597Z,11.37
2022-08-17T02:50:35.316Z,10.90
2022-08-17T02:51:37.292Z,10.95
2022-08-17T02:52:43.666Z,10.64
2022-08-17T02:53:46.743Z,10.90
2022-08-17T02:54:48.431Z,10.53
2022-08-17T02:55:50.126Z,10.71
2022-08-17T02:56:53.479Z,11.43
2022-08-17T02:57:55.982Z,11.38
2022-08-17T02:58:58.630Z,11.58
2022-08-17T03:00:00.273Z,11.13
2022-08-17T03:01:03.261Z,10.23
2022-08-17T03:02:08.328Z,10.51
2022-08-17T03:03:11.081Z,9.96
2022-08-17T03:04:12.838Z,8.82
2022-08-17T03:05:18.252Z,9.12
2022-08-17T03:06:19.894Z,10.22
2022-08-17T03:07:21.609Z,10.15
2022-08-17T03:08:23.834Z,9.52
2022-08-17T03:09:25.570Z,9.70
2022-08-17T03:10:28.244Z,9.83
2022-08-17T03:11:29.942Z,9.51
2022-08-17T03:12:41.650Z,9.92
2022-08-17T03:13:43.281Z,9.48
2022-08-17T03:14:44.943Z,10.13
2022-08-17T03:15:47.166Z,10.28
2022-08-17T03:16:48.831Z,10.11
2022-08-17T03:17:52.063Z,10.44
2022-08-17T03:18:55.026Z,10.30
2022-08-17T03:19:56.719Z,10.44
2022-08-17T03:21:04.131Z,10.42
2022-08-17T03:22:35.405Z,9.29
2022-08-17T03:23:31.103Z,10.63
2022-08-17T03:24:32.896Z,11.27
2022-08-17T03:25:38.604Z,10.77
2022-08-17T03:26:40.382Z,10.72
2022-08-17T03:27:42.168Z,11.00
2022-08-17T03:28:49.825Z,10.91
2022-08-17T03:29:51.471Z,11.05
2022-08-17T03:30:53.352Z,10.72
2022-08-17T03:31:55.032Z,11.05
2022-08-17T03:33:00.810Z,11.28
2022-08-17T03:34:02.480Z,11.27
2022-08-17T03:35:04.438Z,11.19
2022-08-17T03:36:07.002Z,10.84
2022-08-17T03:37:09.461Z,10.81
2022-08-17T03:38:15.364Z,10.92
2022-08-17T03:39:17.897Z,10.29
2022-08-17T03:40:34.449Z,11.01
2022-08-17T03:41:42.054Z,10.34
2022-08-17T03:42:44.274Z,10.35
2022-08-17T03:43:46.044Z,10.87
2022-08-17T03:44:57.142Z,10.96
2022-08-17T03:46:28.810Z,10.56
2022-08-17T03:47:56.091Z,11.08
2022-08-17T03:49:16.684Z,11.24
2022-08-17T03:50:19.046Z,12.08
2022-08-17T03:51:42.692Z,12.09
2022-08-17T03:53:02.903Z,11.50
2022-08-17T03:54:23.656Z,12.34
2022-08-17T03:55:43.613Z,11.68
2022-08-17T03:56:55.115Z,12.98
2022-08-17T03:57:56.800Z,12.82
2022-08-17T03:58:58.493Z,12.79
2022-08-17T04:00:00.413Z,11.63
2022-08-17T04:01:02.323Z,12.26
2022-08-17T04:02:11.075Z,12.83
2022-08-17T04:03:13.847Z,13.96
2022-08-17T04:04:16.833Z,13.58
2022-08-17T04:05:18.540Z,13.81
2022-08-17T04:06:20.808Z,13.13
2022-08-17T04:07:26.108Z,13.47
2022-08-17T04:08:29.103Z,13.17
2022-08-17T04:09:31.125Z,13.41
2022-08-17T04:10:33.975Z,13.04
2022-08-17T04:11:43.274Z,14.07
2022-08-17T04:12:52.999Z,13.63
2022-08-17T04:13:56.101Z,13.55
2022-08-17T04:14:58.298Z,13.15
2022-08-17T04:16:00.026Z,13.82
2022-08-17T04:17:02.538Z,13.94
2022-08-17T04:18:04.401Z,14.99
2022-08-17T04:19:06.318Z,15.30
2022-08-17T04:20:08.573Z,16.54
2022-08-17T04:21:10.636Z,16.41
2022-08-17T04:22:12.378Z,17.56
2022-08-17T04:23:36.569Z,18.00
2022-08-17T04:24:38.311Z,18.11
2022-08-17T04:25:44.462Z,17.85
2022-08-17T04:26:53.817Z,17.27
2022-08-17T04:27:57.695Z,16.46
2022-08-17T04:28:59.893Z,16.68
2022-08-17T04:30:02.195Z,17.13
2022-08-17T04:31:04.738Z,16.75
2022-08-17T04:32:06.797Z,16.84
2022-08-17T04:33:18.345Z,16.64
2022-08-17T04:34:20.261Z,17.34
2022-08-17T04:35:25.957Z,17.72
2022-08-17T04:36:28.357Z,16.88
2022-08-17T04:37:30.220Z,16.79
2022-08-17T04:38:35.792Z,15.91
2022-08-17T04:39:37.519Z,16.27
2022-08-17T04:40:58.028Z,17.25
2022-08-17T04:42:17.030Z,17.41
2022-08-17T04:43:22.198Z,16.96
2022-08-17T04:44:30.406Z,16.98
2022-08-17T04:45:55.478Z,15.84
2022-08-17T04:46:58.518Z,16.35
2022-08-17T04:48:01.227Z,16.75
2022-08-17T04:49:06.739Z,18.06
2022-08-17T04:50:09.280Z,17.80
2022-08-17T04:51:14.947Z,16.87
2022-08-17T04:52:29.775Z,17.09
2022-08-17T04:53:44.476Z,17.48
2022-08-17T04:54:46.174Z,18.50
2022-08-17T04:55:48.451Z,18.23
2022-08-17T04:56:50.166Z,18.46
2022-08-17T04:57:51.855Z,18.35
2022-08-17T04:58:56.784Z,18.39
2022-08-17T04:59:58.480Z,18.00
2022-08-17T05:01:00.486Z,18.29
2022-08-17T05:02:02.326Z,17.86
2022-08-17T05:03:04.956Z,17.10
2022-08-17T05:04:32.121Z,16.98
2022-08-17T05:05:36.455Z,18.20
2022-08-17T05:06:38.233Z,17.65
2022-08-17T05:07:39.961Z,18.04
2022-08-17T05:08:42.122Z,17.47
2022-08-17T05:09:43.981Z,17.33
2022-08-17T05:10:46.965Z,17.27
2022-08-17T05:11:48.844Z,16.65
2022-08-17T05:13:15.804Z,16.60
2022-08-17T05:14:17.510Z,16.04
2022-08-17T05:15:19.249Z,17.71
2022-08-17T05:16:23.583Z,17.54
2022-08-17T05:17:25.295Z,16.23
2022-08-17T05:18:29.570Z,16.54
2022-08-17T05:19:31.336Z,16.96
2022-08-17T05:20:34.970Z,17.42
2022-08-17T05:21:36.688Z,16.51
2022-08-17T05:22:51.275Z,15.73
2022-08-17T05:23:56.395Z,15.64
2022-08-17T05:24:58.657Z,15.84
2022-08-17T05:26:04.398Z,16.01
2022-08-17T05:27:09.640Z,15.76
2022-08-17T05:28:19.059Z,15.79
2022-08-17T05:29:33.790Z,15.00
2022-08-17T05:30:40.421Z,14.85
2022-08-17T05:31:42.151Z,15.24
2022-08-17T05:33:00.308Z,14.95
2022-08-17T05:34:02.062Z,14.81
2022-08-17T05:35:05.359Z,14.76
2022-08-17T05:36:09.616Z,14.61
2022-08-17T05:37:31.301Z,15.57
2022-08-17T05:38:33.194Z,15.44
2022-08-17T05:39:34.898Z,15.78
2022-08-17T05:40:37.151Z,15.79
2022-08-17T05:41:39.220Z,16.14
2022-08-17T05:42:41.505Z,16.94
2022-08-17T05:43:43.351Z,15.70
2022-08-17T05:44:45.176Z,14.70
2022-08-17T05:46:13.297Z,13.99
2022-08-17T05:47:15.249Z,14.47
2022-08-17T05:48:17.041Z,13.97
2022-08-17T05:49:28.349Z,13.93
2022-08-17T05:50:45.755Z,13.95
2022-08-17T05:52:08.498Z,13.95
2022-08-17T05:53:32.789Z,14.34
2022-08-17T05:54:43.375Z,14.88
2022-08-17T05:56:29.465Z,14.58
2022-08-17T05:57:56.061Z,13.68
2022-08-17T05:59:18.649Z,14.30
2022-08-17T06:00:30.586Z,14.03
2022-08-17T06:01:48.591Z,13.99
2022-08-17T06:02:56.000Z,14.40
2022-08-17T06:04:22.573Z,13.05
2022-08-17T06:05:55.393Z,13.60
2022-08-17T06:07:21.704Z,13.23
2022-08-17T06:08:54.021Z,13.15
2022-08-17T06:10:14.707Z,14.30
2022-08-17T06:11:32.838Z,13.51
2022-08-17T06:12:56.195Z,13.45
2022-08-17T06:14:30.598Z,13.80
2022-08-17T06:15:52.618Z,12.73
2022-08-17T06:17:02.357Z,12.40
2022-08-17T06:18:08.178Z,12.61
2022-08-17T06:19:48.656Z,13.38
2022-08-17T06:20:53.484Z,11.97
2022-08-17T06:21:55.953Z,13.17
2022-08-17T06:23:08.701Z,12.44
2022-08-17T06:24:35.659Z,12.10
2022-08-17T06:25:49.680Z,11.93
2022-08-17T06:26:54.763Z,12.97
2022-08-17T06:28:08.657Z,12.28
2022-08-17T06:29:41.211Z,12.79
2022-08-17T06:31:00.743Z,12.49
2022-08-17T06:32:05.000Z,11.93
2022-08-17T06:33:17.370Z,11.93
2022-08-17T06:34:20.815Z,11.94
2022-08-17T06:35:34.143Z,12.15
2022-08-17T06:36:53.961Z,12.00
2022-08-17T06:38:37.119Z,11.17
2022-08-17T06:39:37.691Z,12.14
2022-08-17T06:41:13.762Z,12.72
2022-08-17T06:43:00.819Z,12.28
2022-08-17T06:44:43.179Z,11.93
2022-08-17T06:46:11.462Z,13.40
2022-08-17T06:47:28.162Z,13.85
2022-08-17T06:49:09.041Z,13.03
2022-08-17T06:50:35.917Z,14.00
2022-08-17T06:51:40.603Z,13.90
2022-08-17T06:52:57.670Z,12.71
2022-08-17T06:54:14.347Z,12.73
2022-08-17T06:55:26.383Z,12.86
2022-08-17T06:56:53.296Z,13.05
2022-08-17T06:58:05.330Z,14.16
2022-08-17T06:59:23.661Z,14.56
2022-08-17T07:00:37.058Z,14.19
2022-08-17T07:01:42.125Z,14.19
2022-08-17T07:02:58.794Z,13.48
2022-08-17T07:04:12.106Z,13.47
2022-08-17T07:05:18.322Z,13.53
2022-08-17T07:06:32.433Z,13.58
2022-08-17T07:08:04.861Z,13.01
2022-08-17T07:09:18.689Z,13.81
2022-08-17T07:10:23.645Z,13.54
2022-08-17T07:11:30.969Z,13.80
2022-08-17T07:12:39.405Z,13.84
2022-08-17T07:14:05.878Z,13.37
2022-08-17T07:15:25.939Z,13.72
2022-08-17T07:16:48.952Z,12.45
2022-08-17T07:17:50.883Z,12.41
2022-08-17T07:18:56.432Z,13.83
2022-08-17T07:20:08.217Z,14.51
2022-08-17T07:21:26.912Z,13.05
2022-08-17T07:23:09.049Z,13.39
2022-08-17T07:24:43.174Z,13.28
2022-08-17T07:25:44.887Z,13.30
2022-08-17T07:26:49.516Z,12.83
2022-08-17T07:27:55.882Z,13.51
2022-08-17T07:29:00.706Z,13.09
2022-08-17T07:30:10.862Z,12.91
2022-08-17T07:31:14.292Z,12.97
2022-08-17T07:32:20.730Z,11.86
2022-08-17T07:33:34.219Z,13.15
2022-08-17T07:35:08.507Z,14.79
2022-08-17T07:36:29.594Z,13.22
2022-08-17T07:37:33.325Z,13.74
2022-08-17T07:38:35.637Z,14.48
2022-08-17T07:39:37.446Z,13.63
2022-08-17T07:41:05.368Z,14.08
2022-08-17T07:42:10.464Z,14.59
2022-08-17T07:43:23.074Z,14.50
2022-08-17T07:44:25.418Z,13.66
2022-08-17T07:45:45.730Z,13.07
2022-08-17T07:47:11.690Z,13.14
2022-08-17T07:48:21.382Z,13.83
2022-08-17T07:49:22.980Z,13.66
2022-08-17T07:50:30.050Z,13.74
2022-08-17T07:51:36.478Z,14.65
2022-08-17T07:52:50.691Z,14.25
2022-08-17T07:54:14.561Z,14.70
2022-08-17T07:55:29.469Z,15.52
2022-08-17T07:56:42.266Z,13.86
2022-08-17T07:57:57.439Z,15.07
2022-08-17T07:59:12.543Z,14.90
2022-08-17T08:00:19.770Z,15.09
2022-08-17T08:01:41.788Z,15.12
2022-08-17T08:02:47.307Z,14.78
2022-08-17T08:03:52.765Z,13.83
2022-08-17T08:05:06.788Z,13.67
2022-08-17T08:06:24.351Z,13.87
2022-08-17T08:07:32.042Z,13.72
2022-08-17T08:08:51.169Z,13.18
2022-08-17T08:10:07.809Z,13.17
2022-08-17T08:11:15.411Z,13.73
2022-08-17T08:12:34.919Z,13.91
2022-08-17T08:13:43.574Z,14.02
2022-08-17T08:14:58.716Z,14.02
2022-08-17T08:16:27.578Z,14.59
2022-08-17T08:17:36.394Z,14.88
2022-08-17T08:18:54.109Z,15.78
2022-08-17T08:20:00.492Z,14.62
2022-08-17T08:21:33.640Z,14.94
2022-08-17T08:22:46.366Z,13.97
2022-08-17T08:23:57.492Z,15.04
2022-08-17T08:25:21.400Z,14.46
2022-08-17T08:26:37.578Z,14.68
2022-08-17T08:27:54.423Z,14.70
2022-08-17T08:29:11.334Z,14.06
2022-08-17T08:30:18.459Z,14.36
2022-08-17T08:31:47.670Z,14.26
2022-08-17T08:33:21.038Z,15.04
2022-08-17T08:35:02.826Z,15.07
2022-08-17T08:36:59.326Z,14.37
2022-08-17T08:38:13.534Z,14.38
2022-08-17T08:39:24.761Z,15.00
2022-08-17T08:40:45.547Z,16.00
2022-08-17T08:42:08.856Z,15.27
2022-08-17T08:43:36.263Z,14.44
2022-08-17T08:45:00.264Z,16.18
2022-08-17T08:46:29.594Z,14.78
2022-08-17T08:47:41.572Z,15.34
2022-08-17T08:49:10.232Z,15.16
2022-08-17T08:50:37.820Z,14.56
2022-08-17T08:51:57.508Z,13.97
2022-08-17T08:53:14.316Z,15.67
2022-08-17T08:54:35.151Z,15.57
2022-08-17T08:55:50.832Z,14.88
2022-08-17T08:57:33.950Z,15.09
2022-08-17T08:58:50.672Z,14.69
2022-08-17T09:00:01.420Z,14.43
2022-08-17T09:01:27.134Z,14.76
2022-08-17T09:03:17.838Z,14.39
2022-08-17T09:05:10.670Z,14.92
2022-08-17T09:06:32.292Z,13.69
2022-08-17T09:08:01.590Z,14.52
2022-08-17T09:09:29.234Z,14.04
2022-08-17T09:10:47.911Z,15.23
2022-08-17T09:12:07.970Z,13.69
2022-08-17T09:13:28.463Z,14.63
2022-08-17T09:15:09.438Z,14.31
2022-08-17T09:16:23.139Z,14.58
2022-08-17T09:17:43.624Z,13.76
2022-08-17T09:19:00.040Z,14.73
2022-08-17T09:20:27.995Z,14.29
2022-08-17T09:21:54.780Z,13.85
2022-08-17T09:23:15.358Z,14.15
2022-08-17T09:24:35.742Z,13.98
2022-08-17T09:25:54.850Z,13.78
2022-08-17T09:27:04.414Z,12.61
2022-08-17T09:28:19.301Z,12.94
2022-08-17T09:29:25.910Z,13.14
2022-08-17T09:30:43.582Z,12.74
2022-08-17T09:31:55.606Z,13.31
2022-08-17T09:33:02.278Z,13.05
2022-08-17T09:34:33.210Z,13.13
2022-08-17T09:35:48.257Z,14.24
2022-08-17T09:36:57.298Z,12.59
2022-08-17T09:38:11.244Z,13.46
2022-08-17T09:39:36.330Z,13.15
2022-08-17T09:40:47.661Z,13.49
2022-08-17T09:42:05.219Z,13.40
2022-08-17T09:43:37.637Z,13.58
2022-08-17T09:45:10.291Z,13.27
2022-08-17T09:46:20.318Z,12.81
2022-08-17T09:47:50.264Z,13.74
2022-08-17T09:49:03.588Z,13.92
2022-08-17T09:51:04.246Z,13.90
2022-08-17T09:51:57.092Z,13.31
2022-08-17T09:52:59.654Z,14.32
2022-08-17T09:54:37.124Z,14.07
2022-08-17T09:55:52.581Z,13.89
2022-08-17T09:57:31.448Z,13.52
2022-08-17T09:58:50.440Z,13.91
2022-08-17T10:00:17.265Z,13.10
2022-08-17T10:01:35.425Z,12.33
2022-08-17T10:03:09.612Z,12.78
2022-08-17T10:04:41.044Z,14.04
2022-08-17T10:05:56.875Z,13.41
2022-08-17T10:07:13.179Z,13.66
2022-08-17T10:08:46.999Z,13.55
2022-08-17T10:10:01.545Z,14.04
2022-08-17T10:11:33.406Z,14.52
2022-08-17T10:12:50.129Z,14.18
2022-08-17T10:14:36.822Z,14.38
2022-08-17T10:15:56.444Z,14.61
2022-08-17T10:17:24.127Z,14.55
2022-08-17T10:18:39.912Z,14.12
2022-08-17T10:20:03.173Z,15.16
2022-08-17T10:21:31.649Z,14.66
2022-08-17T10:23:12.262Z,14.11
2022-08-17T10:25:20.975Z,14.55
2022-08-17T10:26:24.854Z,14.52
2022-08-17T10:27:41.574Z,14.36
2022-08-17T10:29:01.615Z,13.73
2022-08-17T10:30:08.234Z,13.38
2022-08-17T10:31:45.545Z,12.83
2022-08-17T10:33:15.627Z,13.37
2022-08-17T10:34:23.275Z,14.02
2022-08-17T10:35:53.775Z,13.77
2022-08-17T10:37:25.284Z,12.64
2022-08-17T10:38:50.510Z,13.45
2022-08-17T10:39:57.402Z,13.85
2022-08-17T10:41:27.050Z,13.55
2022-08-17T10:42:44.418Z,13.21
2022-08-17T10:43:55.857Z,13.36
2022-08-17T10:45:21.660Z,13.89
2022-08-17T10:46:52.142Z,13.59
2022-08-17T10:48:06.245Z,12.79
2022-08-17T10:49:17.293Z,13.10
2022-08-17T10:50:49.737Z,12.86
2022-08-17T10:51:58.359Z,13.73
2022-08-17T10:53:00.069Z,13.73
2022-08-17T10:54:03.389Z,13.11
2022-08-17T10:55:13.926Z,11.97
2022-08-17T10:56:17.423Z,11.94
2022-08-17T10:57:34.347Z,12.38
2022-08-17T10:58:59.162Z,11.93
2022-08-17T11:00:42.425Z,11.78
2022-08-17T11:02:04.182Z,12.61
2022-08-17T11:03:21.214Z,12.88
2022-08-17T11:04:34.452Z,12.87
2022-08-17T11:05:56.200Z,11.92
2022-08-17T11:07:43.854Z,11.89
2022-08-17T11:09:09.810Z,11.58
2022-08-17T11:10:42.240Z,12.75
2022-08-17T11:12:07.431Z,12.95
2022-08-17T11:13:44.899Z,12.88
2022-08-17T11:15:26.116Z,12.01
2022-08-17T11:16:42.847Z,11.88
2022-08-17T11:18:22.739Z,11.78
2022-08-17T11:19:38.386Z,12.35
2022-08-17T11:21:13.548Z,10.89
2022-08-17T11:23:02.596Z,11.10
2022-08-17T11:24:14.965Z,9.57
2022-08-17T11:25:21.106Z,10.34
2022-08-17T11:26:27.258Z,10.48
2022-08-17T11:27:36.606Z,10.12
2022-08-17T11:28:52.582Z,10.52
2022-08-17T11:30:20.591Z,9.76
2022-08-17T11:31:40.193Z,10.17
2022-08-17T11:32:48.804Z,10.20
2022-08-17T11:34:13.279Z,10.55
2022-08-17T11:35:20.915Z,10.04
2022-08-17T11:36:33.664Z,10.59
2022-08-17T11:38:02.819Z,11.26
2022-08-17T11:39:13.289Z,10.38
2022-08-17T11:40:28.104Z,9.57
2022-08-17T11:41:41.365Z,9.69
2022-08-17T11:43:03.369Z,10.64
2022-08-17T11:44:43.237Z,10.51
2022-08-17T11:45:53.616Z,11.18
2022-08-17T11:47:38.826Z,10.93
2022-08-17T11:49:04.926Z,11.26
2022-08-17T11:50:43.066Z,10.23
2022-08-17T11:52:12.115Z,10.86
2022-08-17T11:53:37.128Z,10.45
2022-08-17T11:54:48.914Z,10.99
2022-08-17T11:55:53.080Z,10.66
2022-08-17T11:56:55.056Z,10.89
2022-08-17T11:58:01.653Z,11.40
2022-08-17T11:59:32.688Z,10.18
2022-08-17T12:00:46.525Z,11.79
2022-08-17T12:01:57.007Z,11.11
2022-08-17T12:03:22.464Z,10.76
2022-08-17T12:04:29.522Z,10.63
2022-08-17T12:05:34.098Z,9.79
2022-08-17T12:06:59.758Z,9.73
2022-08-17T12:08:19.728Z,10.21
2022-08-17T12:09:26.353Z,10.36
2022-08-17T12:10:32.788Z,10.36
2022-08-17T12:12:12.893Z,10.60
2022-08-17T12:13:19.050Z,10.43
2022-08-17T12:15:05.712Z,10.39
2022-08-17T12:15:56.092Z,10.20
2022-08-17T12:17:41.498Z,10.88
2022-08-17T12:18:58.494Z,11.56
2022-08-17T12:20:15.053Z,10.75
2022-08-17T12:21:41.037Z,11.28
2022-08-17T12:23:11.763Z,11.10
2022-08-17T12:24:23.110Z,11.54
2022-08-17T12:25:52.798Z,11.69
2022-08-17T12:27:00.393Z,10.96
2022-08-17T12:28:06.099Z,10.45
2022-08-17T12:29:18.171Z,10.09
2022-08-17T12:30:38.169Z,10.38
2022-08-17T12:31:47.190Z,10.53
2022-08-17T12:32:50.059Z,11.77
2022-08-17T12:33:52.265Z,11.21
2022-08-17T12:34:54.036Z,10.96
2022-08-17T12:36:05.916Z,10.77
2022-08-17T12:37:19.891Z,10.39
2022-08-17T12:38:32.461Z,10.88
2022-08-17T12:39:35.240Z,11.88
2022-08-17T12:40:37.903Z,10.80
2022-08-17T12:41:47.056Z,10.28
2022-08-17T12:43:19.549Z,11.32
2022-08-17T12:44:31.472Z,11.09
2022-08-17T12:45:36.406Z,11.11
2022-08-17T12:47:10.639Z,10.95
2022-08-17T12:48:21.550Z,10.28
2022-08-17T12:49:36.893Z,11.16
2022-08-17T12:50:42.428Z,11.89
2022-08-17T12:51:46.765Z,11.80
2022-08-17T12:52:48.655Z,11.91
2022-08-17T12:53:55.095Z,11.60
2022-08-17T12:55:03.023Z,10.67
2022-08-17T12:56:12.585Z,11.48
2022-08-17T12:57:32.711Z,11.21
2022-08-17T12:58:47.480Z,11.46
2022-08-17T12:59:54.976Z,11.45
2022-08-17T13:01:14.985Z,10.81
2022-08-17T13:02:30.001Z,11.24
2022-08-17T13:03:44.067Z,12.09
2022-08-17T13:04:46.221Z,12.02
2022-08-17T13:05:58.597Z,10.97
2022-08-17T13:07:00.447Z,11.95
2022-08-17T13:08:13.458Z,12.82
2022-08-17T13:09:35.561Z,12.73
2022-08-17T13:10:42.378Z,11.60
2022-08-17T13:11:58.379Z,12.32
2022-08-17T13:13:17.738Z,12.49
2022-08-17T13:14:21.977Z,13.04
2022-08-17T13:15:44.928Z,12.70
2022-08-17T13:16:51.333Z,12.85
2022-08-17T13:18:01.078Z,12.75
2022-08-17T13:19:40.371Z,13.36
2022-08-17T13:20:54.183Z,13.08
2022-08-17T13:22:01.874Z,12.60
2022-08-17T13:23:12.392Z,12.19
2022-08-17T13:24:24.121Z,12.26
2022-08-17T13:25:27.781Z,11.75
2022-08-17T13:26:42.142Z,11.76
2022-08-17T13:27:45.978Z,13.38
2022-08-17T13:28:51.678Z,12.68
2022-08-17T13:29:59.573Z,12.18
2022-08-17T13:31:37.469Z,12.41
2022-08-17T13:32:56.519Z,12.28
2022-08-17T13:34:26.880Z,12.46
2022-08-17T13:35:49.305Z,11.99
2022-08-17T13:37:28.888Z,12.87
2022-08-17T13:38:49.531Z,12.35
2022-08-17T13:39:53.162Z,12.93
2022-08-17T13:40:54.852Z,13.16
2022-08-17T13:41:56.564Z,12.61
2022-08-17T13:42:58.927Z,12.62
2022-08-17T13:44:01.241Z,13.41
2022-08-17T13:45:34.784Z,12.22
2022-08-17T13:46:31.292Z,12.52
2022-08-17T13:47:34.328Z,13.68
2022-08-17T13:48:36.559Z,13.15
2022-08-17T13:49:48.147Z,12.59
2022-08-17T13:50:56.801Z,13.24
2022-08-17T13:51:58.850Z,12.64
2022-08-17T13:53:14.914Z,13.08
2022-08-17T13:54:27.769Z,12.78
2022-08-17T13:55:32.094Z,13.24
2022-08-17T13:56:40.445Z,12.22
2022-08-17T13:57:46.813Z,13.16
2022-08-17T13:59:00.602Z,12.78
2022-08-17T14:00:18.798Z,13.50
2022-08-17T14:01:32.818Z,13.59
2022-08-17T14:02:34.566Z,13.38
2022-08-17T14:03:36.266Z,13.58
2022-08-17T14:04:42.322Z,13.88
2022-08-17T14:05:45.962Z,14.30
2022-08-17T14:07:21.528Z,13.48
2022-08-17T14:08:23.980Z,13.46
2022-08-17T14:09:36.805Z,13.29
2022-08-17T14:10:39.019Z,13.22
2022-08-17T14:11:41.992Z,13.77
2022-08-17T14:12:45.526Z,13.89
2022-08-17T14:13:47.265Z,14.12
2022-08-17T14:14:49.744Z,13.68
2022-08-17T14:15:55.201Z,13.44
2022-08-17T14:16:58.393Z,13.86
2022-08-17T14:18:00.518Z,12.86
2022-08-17T14:19:02.253Z,12.49
2022-08-17T14:20:06.482Z,12.93
2022-08-17T14:21:09.717Z,13.00
2022-08-17T14:22:19.527Z,14.51
2022-08-17T14:23:21.353Z,14.80
2022-08-17T14:24:44.695Z,14.11
2022-08-17T14:25:47.000Z,14.48
2022-08-17T14:26:52.133Z,14.68
2022-08-17T14:27:55.058Z,13.95
2022-08-17T14:28:57.224Z,14.25
2022-08-17T14:30:01.733Z,13.50
2022-08-17T14:31:03.564Z,13.53
2022-08-17T14:32:23.009Z,12.97
2022-08-17T14:33:24.821Z,13.49
2022-08-17T14:34:26.492Z,12.49
2022-08-17T14:35:29.543Z,12.56
2022-08-17T14:36:31.255Z,12.54
2022-08-17T14:37:34.416Z,13.01
2022-08-17T14:38:37.234Z,12.70
2022-08-17T14:39:39.404Z,13.39
2022-08-17T14:40:41.687Z,13.99
2022-08-17T14:41:43.806Z,14.18
2022-08-17T14:42:46.086Z,13.86
2022-08-17T14:43:47.800Z,13.70
2022-08-17T14:44:51.002Z,13.25
2022-08-17T14:45:52.731Z,12.72
2022-08-17T14:46:54.452Z,12.79
2022-08-17T14:47:56.121Z,13.45
2022-08-17T14:48:59.690Z,13.15
2022-08-17T14:50:02.657Z,12.73
2022-08-17T14:51:05.464Z,12.69
2022-08-17T14:52:07.192Z,12.83
2022-08-17T14:53:12.298Z,12.92
2022-08-17T14:54:33.013Z,12.16
2022-08-17T14:55:39.732Z,12.54
2022-08-17T14:56:41.397Z,12.74
2022-08-17T14:57:47.108Z,12.06
2022-08-17T14:58:49.130Z,12.85
2022-08-17T14:59:54.725Z,13.08
2022-08-17T15:00:57.691Z,13.39
2022-08-17T15:02:00.782Z,12.88
2022-08-17T15:03:04.096Z,12.57
2022-08-17T15:04:06.207Z,12.67
2022-08-17T15:05:08.460Z,13.02
2022-08-17T15:06:14.544Z,11.94
2022-08-17T15:07:18.597Z,12.63
2022-08-17T15:08:20.302Z,13.06
2022-08-17T15:09:22.064Z,13.45
2022-08-17T15:10:25.925Z,13.90
2022-08-17T15:11:27.742Z,13.18
2022-08-17T15:12:34.343Z,13.67
2022-08-17T15:13:37.259Z,13.25
2022-08-17T15:14:54.248Z,13.08
2022-08-17T15:15:56.943Z,13.09
2022-08-17T15:16:59.654Z,14.91
2022-08-17T15:18:02.604Z,14.30
2022-08-17T15:19:06.646Z,13.75
2022-08-17T15:20:14.565Z,14.11
2022-08-17T15:21:18.157Z,14.63
2022-08-17T15:22:27.368Z,13.98
2022-08-17T15:23:31.952Z,14.66
2022-08-17T15:24:33.728Z,14.05
2022-08-17T15:25:35.751Z,13.71